Aeroporto :
LOGIN :

Iscrizione | Disclaimer

   EN    FR    IT 

 










Sommario :    VFR   VFR Marginale   IFR   IFR Intensivo   IFR Molto Intensivo
Visibilità : 
Base nubi : 
>= 8 km
>= 3000ft
5 / 8 km
1000 / 3000 ft
1500m / 5 km
500 / 1000 ft
800 / 1500m
200 / 500 ft
< 800m
< 200 ft
Simboli :   Temporali  Nebbia  Neve Forte  Precipitazioni Forti  Vento > 20 kt
SIGMETs :   Varie  Temporali  Ghiacco  Turbolenza  Onda orograficha  Ceneri Vulcaniche






- Altitudine del aeroporto : 755 ft
- Codice IATA : KSC


LZKZ - Kosice

ULTIMO METAR :
  • 241730Z 04004KT 8000 BKN020 BKN090 13/12 Q1017

METARs OBSOLETI :
  • 241700Z 05005KT 8000 BKN020 BKN090 12/11 Q1017
  • 241630Z 03004KT 8000 BKN019 BKN080 13/12 Q1017
  • 241600Z 04003KT 7000 BKN018 BKN080 12/12 Q1016 NOSIG
  • 241530Z 05003KT 6000 FEW018 BKN081 13/12 Q1016 NOSIG
  • 241500Z 05005KT 8000 NSC 14/12 Q1016 NOSIG

TAF TAF LZKZ
Valido dal 24 a 12 ore il 25 a 12 ore UTC


241100Z 2412/2512 VRB02KT 9999 FEW015 BKN090
PROB30
TEMPO 2412/2418 -RA BKN014
BECMG 2416/2418 36006KT
PROB40
TEMPO 2418/2502 4000 BR BKN003
TEMPO 2500/2512 03010KT
BECMG 2510/2512 -RA SCT010 OVC060



MetMap, La meteo Aeronautica in un colpo d'occhio ! - Copyright ORBIFLY Dicembre 2007 - Disclaimer

ORBIFLY MET'MAP TEAM :

Programmazione e sviluppo : Alexandra Zaïnal
Concezione : Baudouin d'Aumeries
Aiuto per la programmazione : Marc-Olivier Méhu
Supporto tecnico e logistico : Manuel Goepfert
Aiuto per la traduzione : Arnaldo La Scala

Contatto : metmap@orbifly.com




FONTI E CREDITI :

   NOAA